Maersk Wakamatsu — 3EZG — position and weather

sailwx.info

Track history (hours):
 
Tides and Currents Weather Stations Pressure Air Temp Water Temp Dewpoint Dewpoint Depression Visibility Wind Speed Wind Dir Waves Ship Positions

Maersk Wakamatsu

Last reported at 2016-Aug-24 06:33 UTC. Time now 2016-Aug-30 03:17 UTC.
Position N 10°56' W 061°17'.

Length 172 m; draft 5.8 m.

Type: Cargo ship. MMSI: 370484000.

Date/timePositionNaut miles runAvg speedWind from/ knotsBaromVisibWave heightAir tempDewpointWater temp
2016-Aug-24 06:33N 10°56' W 061°17'2110.6
2016-Aug-24 04:34N 10°49' W 061°38'1111.4
2016-Aug-24 03:34N 10°42' W 061°47'1010.4
2016-Aug-24 02:34N 10°33' W 061°42'1212.0
2016-Aug-24 01:34N 10°24' W 061°33'3 3.3
2016-Aug-24 00:31N 10°24' W 061°30'0 0.0
2016-Aug-23 23:31N 10°24' W 061°30'0 0.0
2016-Aug-23 22:31N 10°24' W 061°30'0 0.0
2016-Aug-23 21:31N 10°24' W 061°30'0 0.0
2016-Aug-23 20:31N 10°24' W 061°30'0 0.0
2016-Aug-23 19:31N 10°24' W 061°30'0 0.0
2016-Aug-23 18:31N 10°24' W 061°30'0 0.0
2016-Aug-23 17:28N 10°24' W 061°30'0 0.0
2016-Aug-23 16:31N 10°24' W 061°30'0 0.0
2016-Aug-23 15:31N 10°24' W 061°30'0 0.0
2016-Aug-23 14:28N 10°24' W 061°30'0 0.0
2016-Aug-23 13:31N 10°24' W 061°30'0 0.0
2016-Aug-23 12:31N 10°24' W 061°30'0 0.0
2016-Aug-23 11:28N 10°24' W 061°30'0 0.0
2016-Aug-23 10:31N 10°24' W 061°30'3 3.1
2016-Aug-23 09:33N 10°23' W 061°32'1 0.6
2016-Aug-23 08:33N 10°23' W 061°33'6 6.0
2016-Aug-23 07:33N 10°27' W 061°37'1111.3
2016-Aug-23 06:33N 10°35' W 061°45'10 9.8
2016-Aug-23 05:33N 10°44' W 061°50'1010.4
2016-Aug-23 04:33N 10°51' W 061°57'  
Track history (hours):
 
Tides and Currents Weather Stations Pressure Air Temp Water Temp Dewpoint Dewpoint Depression Visibility Wind Speed Wind Dir Waves Ship Positions

Maersk Wakamatsu

Last reported at 2016-Aug-24 06:33 UTC. Time now 2016-Aug-30 03:17 UTC.
Position N 10°56' W 061°17'.

Length 172 m; draft 5.8 m.

Type: Cargo ship. MMSI: 370484000.

Date/timePositionNaut miles runAvg speedWind from/ knotsBaromVisibWave heightAir tempDewpointWater temp
2016-Aug-24 06:33N 10°56' W 061°17'2110.6
2016-Aug-24 04:34N 10°49' W 061°38'1111.4
2016-Aug-24 03:34N 10°42' W 061°47'1010.4
2016-Aug-24 02:34N 10°33' W 061°42'1212.0
2016-Aug-24 01:34N 10°24' W 061°33'3 3.3
2016-Aug-24 00:31N 10°24' W 061°30'0 0.0
2016-Aug-23 23:31N 10°24' W 061°30'0 0.0
2016-Aug-23 22:31N 10°24' W 061°30'0 0.0
2016-Aug-23 21:31N 10°24' W 061°30'0 0.0
2016-Aug-23 20:31N 10°24' W 061°30'0 0.0
2016-Aug-23 19:31N 10°24' W 061°30'0 0.0
2016-Aug-23 18:31N 10°24' W 061°30'0 0.0
2016-Aug-23 17:28N 10°24' W 061°30'0 0.0
2016-Aug-23 16:31N 10°24' W 061°30'0 0.0
2016-Aug-23 15:31N 10°24' W 061°30'0 0.0
2016-Aug-23 14:28N 10°24' W 061°30'0 0.0
2016-Aug-23 13:31N 10°24' W 061°30'0 0.0
2016-Aug-23 12:31N 10°24' W 061°30'0 0.0
2016-Aug-23 11:28N 10°24' W 061°30'0 0.0
2016-Aug-23 10:31N 10°24' W 061°30'3 3.1
2016-Aug-23 09:33N 10°23' W 061°32'1 0.6
2016-Aug-23 08:33N 10°23' W 061°33'6 6.0
2016-Aug-23 07:33N 10°27' W 061°37'1111.3
2016-Aug-23 06:33N 10°35' W 061°45'10 9.8
2016-Aug-23 05:33N 10°44' W 061°50'1010.4
2016-Aug-23 04:33N 10°51' W 061°57'  

Dump ship's entire track history